Time;durP1;ratioP1;P1;durP2;ratioP2;P2;SDS_P1;SDS_P2;PMS_P1;PMS_P2;Temp;Humidity;BMP_temperature;BMP_pressure;BME280_temperature;BME280_humidity;BME280_pressure;Samples;Min_cycle;Max_cycle;Signal;HPM_P1;HPM_P2
2024/01/22 00:00:47;;;;;;;1.35;0.68;;;;;;;11.53;86.57;97818.78;4981648;28;20055;-55
2024/01/22 00:03:14;;;;;;;1.23;1.08;;;;;;;11.60;86.81;97810.72;4983196;28;20053;-55
2024/01/22 00:05:41;;;;;;;0.35;0.22;;;;;;;11.53;87.70;97811.00;4985900;28;20054;-53
2024/01/22 00:08:09;;;;;;;2.03;1.10;;;;;;;11.62;85.73;97827.06;4985629;28;20062;-56
2024/01/22 00:10:36;;;;;;;2.88;0.75;;;;;;;11.60;86.36;97821.09;4987140;28;20042;-56
2024/01/22 00:13:03;;;;;;;3.05;0.82;;;;;;;11.63;86.74;97813.19;4987574;28;20054;-59
2024/01/22 00:15:29;;;;;;;1.25;0.55;;;;;;;11.62;86.59;97817.53;4986756;28;20418;-55
2024/01/22 00:17:56;;;;;;;1.27;0.40;;;;;;;11.63;87.17;97819.22;4981235;28;20134;-54
2024/01/22 00:20:23;;;;;;;2.13;0.77;;;;;;;11.66;86.53;97813.06;4984946;28;20050;-56
2024/01/22 00:22:51;;;;;;;1.42;0.60;;;;;;;11.61;87.31;97804.63;4993705;28;20046;-57
2024/01/22 00:25:19;;;;;;;1.38;0.40;;;;;;;11.67;86.78;97825.09;4987986;28;20042;-55
2024/01/22 00:27:45;;;;;;;1.38;0.22;;;;;;;11.69;85.81;97813.75;4989303;28;20050;-58
2024/01/22 00:30:12;;;;;;;2.10;0.60;;;;;;;11.62;86.46;97834.84;4991598;28;20069;-56
2024/01/22 00:32:39;;;;;;;0.52;0.52;;;;;;;11.65;87.05;97826.94;4987005;28;20054;-60
2024/01/22 00:35:07;;;;;;;1.45;0.88;;;;;;;11.71;86.53;97811.09;4990099;28;20089;-57
2024/01/22 00:37:35;;;;;;;3.35;0.80;;;;;;;11.68;85.65;97826.78;4989544;28;20503;-55
2024/01/22 00:40:02;;;;;;;2.28;1.00;;;;;;;11.73;85.07;97824.00;4986067;28;20054;-56
2024/01/22 00:42:29;;;;;;;1.63;0.60;;;;;;;11.65;86.74;97821.75;4985048;28;20054;-57
2024/01/22 00:44:56;;;;;;;0.75;0.70;;;;;;;11.64;86.53;97820.06;4988494;28;20060;-54
2024/01/22 00:47:24;;;;;;;1.15;1.05;;;;;;;11.66;86.89;97820.84;4988457;28;20042;-54
2024/01/22 00:49:50;;;;;;;1.38;0.30;;;;;;;11.70;86.65;97824.97;4977012;28;20050;-57
2024/01/22 00:52:17;;;;;;;0.57;0.32;;;;;;;11.69;86.07;97831.91;4989869;28;20086;-57
2024/01/22 00:54:44;;;;;;;0.75;0.73;;;;;;;11.63;87.56;97803.66;4988582;28;20646;-56
2024/01/22 00:57:10;;;;;;;1.05;1.05;;;;;;;11.56;88.08;97810.84;4989131;28;20054;-49
2024/01/22 00:59:37;;;;;;;1.10;0.75;;;;;;;11.63;87.20;97802.81;4982359;28;20050;-56
2024/01/22 01:02:04;;;;;;;1.48;1.17;;;;;;;11.62;86.97;97793.38;4987221;28;20054;-53
2024/01/22 01:04:31;;;;;;;0.88;0.77;;;;;;;11.52;86.71;97805.88;4988328;28;20049;-55
2024/01/22 01:06:57;;;;;;;2.70;0.85;;;;;;;11.61;85.01;97804.63;4989207;28;20050;-54
2024/01/22 01:09:24;;;;;;;4.15;1.38;;;;;;;11.60;84.60;97823.69;4988743;28;20042;-56
2024/01/22 01:11:52;;;;;;;3.53;1.27;;;;;;;11.62;84.95;97820.13;4985472;28;20117;-55
2024/01/22 01:14:19;;;;;;;2.42;1.05;;;;;;;11.49;84.74;97801.69;4982567;28;20055;-58
2024/01/22 01:16:46;;;;;;;2.67;0.65;;;;;;;11.47;83.49;97808.66;4987057;28;20057;-56
2024/01/22 01:19:13;;;;;;;5.78;1.75;;;;;;;11.51;82.75;97810.22;4990256;28;20050;-56
2024/01/22 01:21:41;;;;;;;5.15;1.55;;;;;;;11.38;83.66;97820.25;4983689;28;20141;-53
2024/01/22 01:24:08;;;;;;;5.82;1.20;;;;;;;11.41;82.60;97814.09;4989356;28;20553;-54
2024/01/22 01:26:43;;;;;;;6.00;1.25;;;;;;;11.37;82.11;97825.50;4982810;28;20054;-56
2024/01/22 01:29:10;;;;;;;5.97;1.13;;;;;;;11.34;82.11;97812.69;4981966;28;20070;-54
2024/01/22 01:31:37;;;;;;;8.43;1.45;;;;;;;11.27;82.15;97822.44;4985338;28;20085;-58
2024/01/22 01:34:04;;;;;;;5.25;1.23;;;;;;;11.23;81.97;97841.63;4988061;28;20104;-56
2024/01/22 01:36:32;;;;;;;4.45;1.45;;;;;;;11.27;81.84;97833.66;4988653;28;20458;-56
2024/01/22 01:38:59;;;;;;;5.63;1.70;;;;;;;11.27;81.69;97825.03;4987468;28;20046;-55
2024/01/22 01:41:26;;;;;;;4.38;1.30;;;;;;;11.28;81.58;97827.56;4982651;28;20055;-57
2024/01/22 01:43:53;;;;;;;2.30;0.85;;;;;;;11.19;81.17;97825.38;4982954;28;20061;-59
2024/01/22 01:46:19;;;;;;;4.03;0.75;;;;;;;11.20;81.17;97837.41;4988773;28;20050;-58
2024/01/22 01:48:46;;;;;;;3.97;1.25;;;;;;;11.15;81.05;97844.53;4986017;28;20150;-59
2024/01/22 01:51:15;;;;;;;6.70;0.90;;;;;;;11.21;81.40;97854.63;4985442;28;20104;-57
2024/01/22 01:53:43;;;;;;;2.53;0.60;;;;;;;11.22;81.33;97845.97;4985606;28;20056;-51
2024/01/22 01:56:12;;;;;;;7.05;1.35;;;;;;;11.17;81.10;97859.13;4983767;28;20054;-56
2024/01/22 01:58:39;;;;;;;6.03;1.30;;;;;;;11.23;81.13;97873.56;4987196;28;20082;-51
2024/01/22 02:01:06;;;;;;;4.00;1.15;;;;;;;11.24;81.89;97885.63;4987035;28;20054;-54
2024/01/22 02:03:32;;;;;;;4.70;1.60;;;;;;;11.27;81.30;97895.84;4987850;28;20077;-51
2024/01/22 02:06:01;;;;;;;8.43;1.20;;;;;;;11.26;82.03;97893.31;4988006;28;20069;-58
2024/01/22 02:08:28;;;;;;;8.65;0.98;;;;;;;11.34;81.43;97899.03;4985686;28;20569;-53
2024/01/22 02:10:55;;;;;;;1.55;0.35;;;;;;;11.25;81.57;97904.59;4985436;28;20050;-56
2024/01/22 02:13:21;;;;;;;4.15;1.58;;;;;;;11.30;81.49;97907.84;4984824;28;20487;-55
2024/01/22 02:15:48;;;;;;;10.10;2.05;;;;;;;11.29;81.56;97919.94;4984669;28;20057;-56
2024/01/22 02:18:15;;;;;;;10.95;1.70;;;;;;;11.29;82.83;97922.53;4987396;28;20128;-52
2024/01/22 02:20:42;;;;;;;10.18;1.35;;;;;;;11.28;82.94;97918.28;4986313;28;20042;-49
2024/01/22 02:23:08;;;;;;;11.10;1.42;;;;;;;11.26;81.44;97934.78;4983597;28;20054;-56
2024/01/22 02:25:35;;;;;;;18.60;2.70;;;;;;;11.25;81.59;97933.09;4981351;28;20060;-59
2024/01/22 02:28:02;;;;;;;10.93;2.30;;;;;;;11.08;82.43;97931.19;4987286;28;20046;-57
2024/01/22 02:30:30;;;;;;;9.27;1.98;;;;;;;11.07;82.57;97965.75;4982288;28;20057;-56
2024/01/22 02:32:57;;;;;;;8.85;1.50;;;;;;;11.06;82.83;97990.81;4984845;28;20735;-53
2024/01/22 02:35:24;;;;;;;10.52;1.98;;;;;;;11.04;83.05;98005.56;4987417;28;20046;-54
2024/01/22 02:37:51;;;;;;;4.78;2.03;;;;;;;10.85;83.41;98000.22;4981242;28;20113;-55
2024/01/22 02:40:19;;;;;;;5.68;2.13;;;;;;;10.87;82.08;98001.00;4987181;28;20053;-57
2024/01/22 02:42:47;;;;;;;5.25;1.38;;;;;;;10.79;81.94;98022.88;4978255;28;20519;-57
2024/01/22 02:45:14;;;;;;;3.88;0.65;;;;;;;10.80;81.14;98026.28;4981820;28;20415;-54
2024/01/22 02:47:42;;;;;;;5.82;0.88;;;;;;;10.67;81.30;98034.50;4991121;28;20097;-59
2024/01/22 02:50:09;;;;;;;11.55;1.10;;;;;;;10.57;81.21;98058.19;4981391;28;20464;-57
2024/01/22 02:52:36;;;;;;;4.07;0.93;;;;;;;10.52;80.75;98063.50;4981395;28;20631;-57
2024/01/22 02:55:03;;;;;;;3.95;0.98;;;;;;;10.46;80.85;98074.94;4984026;28;20404;-54
2024/01/22 02:57:30;;;;;;;4.20;0.70;;;;;;;10.38;79.63;98087.25;4991960;28;20050;-56
2024/01/22 02:59:57;;;;;;;2.97;1.52;;;;;;;10.28;80.17;98100.50;4984333;28;20054;-59
2024/01/22 03:02:23;;;;;;;6.72;1.35;;;;;;;10.31;79.64;98091.78;4982919;28;20056;-53
2024/01/22 03:04:50;;;;;;;3.92;0.88;;;;;;;10.21;79.62;98117.13;4985093;28;20108;-58
2024/01/22 03:07:18;;;;;;;6.65;1.30;;;;;;;10.12;79.12;98118.25;4984239;28;20054;-53
2024/01/22 03:09:45;;;;;;;4.85;1.33;;;;;;;10.05;79.01;98136.59;4989710;28;20303;-52
2024/01/22 03:12:12;;;;;;;5.05;0.80;;;;;;;10.11;79.05;98139.00;4978047;28;20499;-56
2024/01/22 03:14:39;;;;;;;5.40;1.00;;;;;;;10.01;78.12;98147.06;4979605;28;20129;-58
2024/01/22 03:17:05;;;;;;;3.22;1.25;;;;;;;10.03;78.49;98175.44;4977345;28;20054;-57
2024/01/22 03:19:32;;;;;;;3.35;1.35;;;;;;;9.99;78.09;98168.66;4985864;28;20052;-55
2024/01/22 03:21:59;;;;;;;10.23;1.45;;;;;;;10.03;77.68;98171.13;4978876;28;20053;-55
2024/01/22 03:24:25;;;;;;;4.97;1.30;;;;;;;9.99;77.70;98179.00;4973732;28;20050;-52
2024/01/22 03:26:54;;;;;;;4.63;1.05;;;;;;;9.95;77.75;98183.44;4985003;28;20445;-55
2024/01/22 03:29:21;;;;;;;4.75;1.70;;;;;;;9.94;78.16;98196.41;4981188;28;20046;-56
2024/01/22 03:31:47;;;;;;;6.88;1.02;;;;;;;9.94;77.79;98201.59;4984961;28;20062;-53
2024/01/22 03:34:15;;;;;;;5.43;0.80;;;;;;;9.94;77.73;98211.94;4978482;28;20053;-53
2024/01/22 03:36:42;;;;;;;9.00;1.50;;;;;;;9.94;77.64;98217.97;4985486;28;20050;-54
2024/01/22 03:39:09;;;;;;;9.18;2.17;;;;;;;9.87;78.05;98213.88;4979693;28;20081;-56
2024/01/22 03:41:39;;;;;;;;;;;;;;;9.80;78.22;98218.38;4974679;28;20762;-54
2024/01/22 03:44:06;;;;;;;7.78;1.73;;;;;;;9.79;77.64;98218.41;4977593;28;20641;-55
2024/01/22 03:46:32;;;;;;;6.97;0.88;;;;;;;9.70;77.45;98233.31;4979131;28;20065;-53
2024/01/22 03:49:00;;;;;;;5.18;0.77;;;;;;;9.81;76.78;98242.47;4983130;28;20068;-52
2024/01/22 03:51:27;;;;;;;9.90;1.55;;;;;;;9.84;76.91;98247.56;4972247;28;20046;-56
2024/01/22 03:53:53;;;;;;;11.13;1.73;;;;;;;9.87;77.42;98247.47;4980245;28;20073;-56
2024/01/22 03:56:20;;;;;;;10.52;1.77;;;;;;;9.85;76.51;98244.94;4982135;28;20054;-57
2024/01/22 03:58:47;;;;;;;7.05;1.23;;;;;;;9.80;76.11;98259.75;4985861;28;20542;-55
2024/01/22 04:01:23;;;;;;;4.93;2.03;;;;;;;9.76;76.57;98271.03;4977903;28;20877;-57
2024/01/22 04:03:50;;;;;;;11.55;1.25;;;;;;;9.79;76.52;98275.28;4982247;28;20065;-55
2024/01/22 04:06:18;;;;;;;8.63;1.55;;;;;;;9.75;75.50;98280.53;4983487;28;20046;-53
2024/01/22 04:08:45;;;;;;;9.02;1.27;;;;;;;9.77;75.78;98296.03;4981941;28;20547;-54
2024/01/22 04:11:13;;;;;;;11.45;1.77;;;;;;;9.71;75.81;98304.78;4980420;28;20586;-59
2024/01/22 04:13:40;;;;;;;9.65;1.90;;;;;;;9.73;75.94;98307.34;4974001;28;20055;-56
2024/01/22 04:16:11;;;;;;;7.53;1.83;;;;;;;9.64;75.58;98309.28;4980316;28;20050;-54
2024/01/22 04:18:40;;;;;;;9.77;2.42;;;;;;;9.59;75.24;98325.81;4980597;28;20047;-56
2024/01/22 04:21:08;;;;;;;13.07;2.22;;;;;;;9.60;75.45;98333.50;4981504;28;20046;-56
2024/01/22 04:23:36;;;;;;;8.50;1.83;;;;;;;9.51;75.52;98336.34;4987836;28;20065;-56
2024/01/22 04:26:04;;;;;;;7.28;1.13;;;;;;;9.40;75.22;98341.78;4987862;28;20054;-58
2024/01/22 04:28:31;;;;;;;5.07;1.30;;;;;;;9.30;74.87;98354.09;4990358;28;20053;-57
2024/01/22 04:30:57;;;;;;;5.95;1.23;;;;;;;9.25;75.24;98363.66;4989553;28;20050;-56
2024/01/22 04:33:24;;;;;;;9.25;2.33;;;;;;;9.26;74.67;98361.06;4981380;28;20062;-56
2024/01/22 04:35:51;;;;;;;11.77;2.70;;;;;;;9.33;75.02;98366.06;4988616;28;20791;-58
2024/01/22 04:38:18;;;;;;;11.95;1.85;;;;;;;9.31;75.02;98373.00;4982963;28;20069;-51
2024/01/22 04:40:46;;;;;;;2.53;0.77;;;;;;;9.30;74.91;98376.47;4986205;28;20038;-53
2024/01/22 04:43:15;;;;;;;13.35;2.20;;;;;;;9.33;75.06;98385.03;4981242;28;20061;-52
2024/01/22 04:45:42;;;;;;;5.40;1.80;;;;;;;9.19;74.59;98385.34;4983331;28;20062;-57
2024/01/22 04:48:09;;;;;;;9.10;1.48;;;;;;;9.21;75.12;98393.91;4982511;28;20058;-55
2024/01/22 04:50:36;;;;;;;8.63;1.95;;;;;;;9.11;74.52;98397.59;4984333;28;20515;-53
2024/01/22 04:53:04;;;;;;;7.53;1.38;;;;;;;9.04;74.80;98404.63;4986084;28;20073;-53
2024/01/22 04:55:31;;;;;;;15.40;2.60;;;;;;;9.03;74.68;98407.25;4980825;28;20050;-53
2024/01/22 04:58:02;;;;;;;4.82;1.92;;;;;;;8.96;74.36;98417.72;4991947;28;20088;-56
2024/01/22 05:00:28;;;;;;;7.90;1.50;;;;;;;8.93;74.44;98425.53;4985662;28;20137;-53
2024/01/22 05:02:55;;;;;;;9.95;1.45;;;;;;;8.94;74.36;98424.66;4982452;28;20124;-56
2024/01/22 05:05:23;;;;;;;16.92;2.40;;;;;;;8.91;74.39;98435.03;4982549;28;20157;-55
2024/01/22 05:07:50;;;;;;;8.02;1.42;;;;;;;8.83;74.32;98445.56;4978346;28;20062;-56
2024/01/22 05:10:16;;;;;;;7.60;1.27;;;;;;;8.86;74.47;98447.22;4979262;28;20046;-53
2024/01/22 05:12:43;;;;;;;12.80;1.45;;;;;;;8.73;73.96;98455.22;4988370;28;20142;-56
2024/01/22 05:15:11;;;;;;;6.82;2.25;;;;;;;8.69;73.77;98463.91;4985354;28;20050;-58
2024/01/22 05:17:39;;;;;;;12.18;2.38;;;;;;;8.79;74.04;98474.03;4988802;28;20054;-54
2024/01/22 05:20:06;;;;;;;8.35;1.70;;;;;;;8.77;74.01;98468.03;4995895;28;20080;-56
2024/01/22 05:22:34;;;;;;;17.13;1.65;;;;;;;8.71;73.33;98477.63;4988519;28;20458;-55
2024/01/22 05:25:02;;;;;;;5.80;1.30;;;;;;;8.60;72.58;98469.25;4987764;28;20065;-58
2024/01/22 05:27:30;;;;;;;13.15;2.05;;;;;;;8.63;72.55;98481.22;4988668;28;20097;-55
2024/01/22 05:29:56;;;;;;;4.15;1.63;;;;;;;8.57;72.75;98489.94;4992708;28;20050;-55
2024/01/22 05:32:23;;;;;;;5.35;1.67;;;;;;;8.59;72.35;98498.53;4986057;28;20042;-58
2024/01/22 05:34:50;;;;;;;5.18;1.23;;;;;;;8.65;72.78;98488.06;4987072;28;20050;-54
2024/01/22 05:37:17;;;;;;;6.60;1.15;;;;;;;8.58;72.72;98502.00;4985704;28;20878;-58
2024/01/22 05:39:44;;;;;;;6.85;1.33;;;;;;;8.56;72.69;98504.59;4986203;28;20057;-56
2024/01/22 05:42:11;;;;;;;12.98;2.10;;;;;;;8.61;72.62;98501.91;4991088;28;20698;-57
2024/01/22 05:44:37;;;;;;;6.00;1.77;;;;;;;8.62;72.62;98511.38;4988674;28;20050;-53
2024/01/22 05:47:04;;;;;;;7.45;1.67;;;;;;;8.59;72.73;98508.84;4988326;28;20082;-51
2024/01/22 05:49:31;;;;;;;15.95;2.40;;;;;;;8.49;72.81;98508.97;4987500;28;20085;-55
2024/01/22 05:51:58;;;;;;;8.85;1.75;;;;;;;8.57;72.71;98513.16;4988442;28;20068;-57
2024/01/22 05:54:25;;;;;;;6.50;1.58;;;;;;;8.45;72.58;98509.91;4986550;28;20046;-55
2024/01/22 05:56:53;;;;;;;6.55;1.02;;;;;;;8.38;72.68;98529.00;4987659;28;20081;-53
2024/01/22 05:59:20;;;;;;;8.95;1.42;;;;;;;8.33;72.43;98533.38;4994158;28;20140;-59
2024/01/22 06:01:47;;;;;;;12.82;1.88;;;;;;;8.37;72.64;98542.75;4987842;28;20091;-54
2024/01/22 06:04:16;;;;;;;7.18;1.42;;;;;;;8.29;72.96;98547.19;4988403;28;20058;-55
2024/01/22 06:06:44;;;;;;;6.07;1.10;;;;;;;8.29;72.78;98555.81;4988285;28;20085;-52
2024/01/22 06:09:11;;;;;;;10.60;2.25;;;;;;;8.21;72.35;98566.22;4987275;28;20554;-51
2024/01/22 06:11:37;;;;;;;10.05;1.88;;;;;;;8.25;73.27;98572.22;4978421;28;20057;-55
2024/01/22 06:14:04;;;;;;;8.90;1.33;;;;;;;8.09;72.08;98562.16;4986077;28;20092;-53
2024/01/22 06:16:31;;;;;;;9.85;2.22;;;;;;;8.15;72.04;98566.34;4982899;28;20058;-52
2024/01/22 06:18:58;;;;;;;10.85;1.40;;;;;;;8.15;72.37;98574.09;4985152;28;20054;-51
2024/01/22 06:21:27;;;;;;;6.70;1.20;;;;;;;8.06;71.93;98576.81;4986583;28;20446;-59
2024/01/22 06:23:54;;;;;;;6.82;1.30;;;;;;;8.02;73.02;98585.47;4987675;28;20046;-53
2024/01/22 06:26:22;;;;;;;12.95;1.98;;;;;;;8.02;73.05;98595.78;4984661;28;20050;-55
2024/01/22 06:28:49;;;;;;;14.65;2.05;;;;;;;8.03;73.42;98597.47;4990966;28;20451;-55
2024/01/22 06:31:15;;;;;;;6.70;1.52;;;;;;;7.97;72.92;98599.28;4985215;28;20046;-55
2024/01/22 06:33:42;;;;;;;6.15;1.33;;;;;;;7.93;72.23;98607.94;4987193;28;20073;-53
2024/01/22 06:36:10;;;;;;;4.80;1.08;;;;;;;7.89;72.98;98610.59;4983830;28;20533;-54
2024/01/22 06:38:37;;;;;;;4.35;1.30;;;;;;;7.84;71.99;98623.56;4986851;28;20136;-54
2024/01/22 06:41:09;;;;;;;5.55;0.88;;;;;;;7.76;73.07;98630.53;4985491;28;20077;-57
2024/01/22 06:43:36;;;;;;;12.45;1.70;;;;;;;7.80;72.19;98632.22;4986606;28;20093;-57
2024/01/22 06:46:03;;;;;;;3.55;0.95;;;;;;;7.77;71.63;98642.56;4985094;28;20684;-56
2024/01/22 06:48:29;;;;;;;13.93;2.63;;;;;;;7.74;72.88;98637.44;4984281;28;20065;-59
2024/01/22 06:50:56;;;;;;;7.80;2.65;;;;;;;7.66;71.94;98638.41;4986390;28;20295;-58
2024/01/22 06:53:23;;;;;;;6.53;1.48;;;;;;;7.69;72.77;98646.09;4985525;28;20803;-57
2024/01/22 06:55:50;;;;;;;7.72;1.00;;;;;;;7.68;71.73;98644.41;4985246;28;20058;-56
2024/01/22 06:58:17;;;;;;;4.90;0.80;;;;;;;7.61;72.02;98635.03;4982966;28;20727;-52
2024/01/22 07:00:45;;;;;;;7.90;0.80;;;;;;;7.60;72.16;98651.34;4986428;28;20511;-57
2024/01/22 07:03:12;;;;;;;9.10;1.50;;;;;;;7.55;72.53;98658.28;4976082;28;20144;-57
2024/01/22 07:05:39;;;;;;;6.63;0.98;;;;;;;7.56;71.54;98660.00;4981843;28;20573;-52
2024/01/22 07:08:06;;;;;;;11.70;1.83;;;;;;;7.57;71.62;98659.16;4981153;28;20141;-55
2024/01/22 07:10:33;;;;;;;4.25;1.23;;;;;;;7.51;71.38;98675.53;4977344;28;20570;-52
2024/01/22 07:13:03;;;;;;;8.70;1.58;;;;;;;7.52;72.04;98684.09;4981448;28;20065;-53
2024/01/22 07:15:31;;;;;;;10.27;1.60;;;;;;;7.50;70.99;98670.41;4974222;28;20085;-56
2024/01/22 07:17:58;;;;;;;2.50;1.48;;;;;;;7.37;71.73;98683.44;4978430;28;20054;-54
2024/01/22 07:20:25;;;;;;;9.23;1.75;;;;;;;7.43;71.85;98691.06;4984638;28;20125;-57
2024/01/22 07:22:53;;;;;;;6.65;1.27;;;;;;;7.40;71.00;98688.53;4987029;28;20073;-57
2024/01/22 07:25:20;;;;;;;11.43;2.70;;;;;;;7.44;72.77;98703.06;4980546;28;20047;-52
2024/01/22 07:27:47;;;;;;;13.80;2.78;;;;;;;7.43;72.12;98701.38;4981760;28;20076;-55
2024/01/22 07:30:14;;;;;;;15.95;6.50;;;;;;;7.44;72.58;98703.06;4981805;28;20061;-54
2024/01/22 07:32:43;;;;;;;8.00;2.03;;;;;;;7.45;72.09;98704.81;4983801;28;20171;-52
2024/01/22 07:35:13;;;;;;;8.98;2.17;;;;;;;7.47;72.45;98707.34;4981949;28;20330;-51
2024/01/22 07:37:47;;;;;;;7.72;1.67;;;;;;;7.44;71.97;98713.38;4983557;28;20499;-56
2024/01/22 07:40:14;;;;;;;10.52;1.33;;;;;;;7.39;72.53;98720.31;4980808;28;20073;-55
2024/01/22 07:42:41;;;;;;;9.27;1.67;;;;;;;7.41;71.72;98716.00;4981358;28;20054;-55
2024/01/22 07:45:10;;;;;;;10.35;2.47;;;;;;;7.44;72.91;98713.38;4982713;28;20062;-52
2024/01/22 07:47:39;;;;;;;10.05;2.42;;;;;;;7.36;71.64;98724.66;4982096;28;20062;-55
2024/01/22 07:50:10;;;;;;;9.65;1.38;;;;;;;7.32;72.57;98731.56;4985113;28;20042;-52
2024/01/22 07:52:37;;;;;;;5.22;1.63;;;;;;;7.30;71.82;98735.88;4980337;28;20145;-54
2024/01/22 07:55:06;;;;;;;6.68;1.30;;;;;;;7.33;71.46;98748.72;4982776;28;20109;-55
2024/01/22 07:57:34;;;;;;;5.38;1.63;;;;;;;7.32;72.45;98754.72;4980161;28;20046;-53
2024/01/22 08:00:02;;;;;;;2.95;0.88;;;;;;;7.30;71.82;98759.06;4993272;28;20053;-56
2024/01/22 08:02:30;;;;;;;4.18;1.52;;;;;;;7.19;71.22;98765.16;4988208;28;20186;-54
2024/01/22 08:04:57;;;;;;;6.10;1.48;;;;;;;7.26;71.50;98775.41;4988278;28;20213;-55
2024/01/22 08:07:24;;;;;;;8.20;1.65;;;;;;;7.25;72.07;98789.13;4992863;28;20050;-53
2024/01/22 08:09:51;;;;;;;4.55;1.17;;;;;;;7.25;71.74;98800.31;4986083;28;20074;-58
2024/01/22 08:12:18;;;;;;;3.75;1.08;;;;;;;7.31;70.93;98804.53;4980974;28;20062;-53
2024/01/22 08:14:45;;;;;;;9.13;2.55;;;;;;;7.31;71.59;98804.53;4988855;28;20045;-56
2024/01/22 08:17:12;;;;;;;8.18;1.83;;;;;;;7.32;71.68;98811.41;4982952;28;20080;-56
2024/01/22 08:19:39;;;;;;;5.07;1.10;;;;;;;7.37;70.62;98817.38;4984121;28;20411;-52
2024/01/22 08:22:06;;;;;;;19.90;5.75;;;;;;;7.44;71.33;98828.47;4986751;28;20054;-54
2024/01/22 08:24:32;;;;;;;33.13;8.50;;;;;;;7.56;71.12;98822.31;4981155;28;20050;-56
2024/01/22 08:27:00;;;;;;;19.55;4.63;;;;;;;7.50;69.74;98824.97;4980136;28;20242;-52
2024/01/22 08:29:27;;;;;;;14.88;4.47;;;;;;;7.58;70.91;98833.50;4985099;28;20061;-57
2024/01/22 08:31:54;;;;;;;12.93;3.47;;;;;;;7.66;71.16;98823.94;4979837;28;20050;-53
2024/01/22 08:34:22;;;;;;;6.28;1.48;;;;;;;7.67;70.87;98827.41;4979689;28;20042;-56
2024/01/22 08:36:50;;;;;;;21.35;5.20;;;;;;;7.80;70.28;98831.53;4985142;28;20384;-56
2024/01/22 08:39:17;;;;;;;10.52;2.97;;;;;;;7.96;71.14;98831.34;4986914;28;20667;-55
2024/01/22 08:41:44;;;;;;;8.77;2.75;;;;;;;8.06;70.29;98845.00;4988802;28;20073;-57
2024/01/22 08:44:11;;;;;;;10.60;2.88;;;;;;;8.14;70.15;98843.16;4987603;28;20046;-57
2024/01/22 08:46:37;;;;;;;15.85;3.35;;;;;;;8.19;69.65;98841.41;4983588;28;20058;-57
2024/01/22 08:49:04;;;;;;;13.60;2.35;;;;;;;8.25;68.96;98855.97;4986863;28;20054;-57
2024/01/22 08:51:31;;;;;;;10.20;3.58;;;;;;;8.40;69.46;98856.59;4985602;28;20043;-55
2024/01/22 08:53:59;;;;;;;6.38;2.30;;;;;;;8.54;69.07;98866.81;4981240;28;20176;-58
2024/01/22 08:56:26;;;;;;;17.45;3.03;;;;;;;8.73;69.07;98868.25;4986524;28;20108;-58
2024/01/22 08:58:54;;;;;;;8.40;1.98;;;;;;;9.05;68.76;98868.63;4982010;28;20682;-58
2024/01/22 09:01:20;;;;;;;7.82;2.28;;;;;;;9.22;67.71;98870.94;4981447;28;20766;-56
2024/01/22 09:03:47;;;;;;;8.40;1.52;;;;;;;9.50;67.42;98870.47;4986396;28;20054;-58
2024/01/22 09:06:14;;;;;;;15.13;2.65;;;;;;;9.83;66.89;98874.25;4986283;28;20141;-54
2024/01/22 09:08:42;;;;;;;11.88;1.77;;;;;;;10.03;65.71;98864.38;4981539;28;20073;-59
2024/01/22 09:11:10;;;;;;;7.75;2.40;;;;;;;10.21;64.96;98872.66;4984930;28;20058;-55
2024/01/22 09:13:38;;;;;;;11.13;2.33;;;;;;;10.43;64.28;98877.38;4981921;28;20540;-58
2024/01/22 09:16:05;;;;;;;13.55;2.22;;;;;;;10.72;65.03;98863.00;4982859;28;20072;-57
2024/01/22 09:18:32;;;;;;;9.85;2.00;;;;;;;10.95;64.10;98876.28;4982818;28;20177;-59
2024/01/22 09:21:02;;;;;;;6.63;1.83;;;;;;;11.16;63.37;98885.28;4983731;28;20087;-52
2024/01/22 09:23:29;;;;;;;13.18;2.50;;;;;;;11.31;62.74;98882.34;4985199;28;21396;-57
2024/01/22 09:25:56;;;;;;;7.18;1.73;;;;;;;11.45;62.94;98878.53;4989386;28;20534;-55
2024/01/22 09:28:30;;;;;;;14.13;1.75;;;;;;;11.61;62.59;98867.78;4986383;28;20054;-54
2024/01/22 09:30:58;;;;;;;10.15;1.67;;;;;;;11.63;60.39;98894.53;4984512;28;20124;-54
2024/01/22 09:33:25;;;;;;;9.35;2.28;;;;;;;11.99;60.08;98891.84;4987436;28;20129;-55
2024/01/22 09:35:54;;;;;;;14.35;3.05;;;;;;;12.26;60.30;98902.38;4992016;28;20053;-53
2024/01/22 09:38:22;;;;;;;9.50;2.25;;;;;;;12.19;59.43;98912.09;4985742;28;20052;-53
2024/01/22 09:40:50;;;;;;;8.85;1.67;;;;;;;12.03;58.18;98910.78;4991592;28;20049;-53
2024/01/22 09:43:18;;;;;;;10.93;1.95;;;;;;;11.72;58.34;98915.03;4982985;28;20054;-55
2024/01/22 09:45:48;;;;;;;4.80;1.60;;;;;;;11.59;59.12;98926.63;4987158;28;20567;-59
2024/01/22 09:48:15;;;;;;;;;;;;;;;11.04;58.46;98936.53;4986399;28;20050;-58
2024/01/22 09:50:42;;;;;;;11.25;2.70;;;;;;;11.07;60.09;98929.59;4986118;28;19925;-52
2024/01/22 09:53:10;;;;;;;8.82;1.77;;;;;;;11.10;59.55;98940.72;4989908;28;20058;-54
2024/01/22 09:55:42;;;;;;;8.15;1.63;;;;;;;11.29;60.26;98941.13;4988136;28;20050;-51
2024/01/22 09:58:09;;;;;;;12.10;3.10;;;;;;;11.66;61.24;98948.91;4989428;28;20554;-57
2024/01/22 10:00:39;;;;;;;9.20;1.65;;;;;;;12.32;60.34;98953.28;4987380;28;20064;-57
2024/01/22 10:03:06;;;;;;;;;;;;;;;12.81;57.88;98961.44;4976019;28;20526;-59
2024/01/22 10:05:34;;;;;;;9.95;2.65;;;;;;;13.37;58.81;98959.75;4977855;28;19936;-55
2024/01/22 10:08:01;;;;;;;10.68;3.08;;;;;;;13.92;58.90;98955.41;4976789;28;20074;-60
2024/01/22 10:10:28;;;;;;;9.07;2.30;;;;;;;14.38;57.04;98967.69;4980165;28;20060;-52
2024/01/22 10:15:35;;;;;;;7.20;3.95;;;;;;;14.96;54.99;98978.69;5004236;28;20408;-54
2024/01/22 10:20:46;;;;;;;10.05;2.13;;;;;;;14.93;54.50;98990.06;5030706;28;20414;-57
2024/01/22 10:23:15;;;;;;;13.45;3.10;;;;;;;14.75;54.69;98987.22;4999545;28;20046;-54
2024/01/22 10:25:44;;;;;;;9.43;2.25;;;;;;;15.08;55.05;98991.25;4993034;28;20513;-60
2024/01/22 10:28:17;;;;;;;7.43;2.70;;;;;;;15.36;54.29;99004.97;4997893;28;20383;-57
2024/01/22 10:30:46;;;;;;;8.57;3.08;;;;;;;15.50;53.53;99005.25;5010336;28;20054;-56
2024/01/22 10:35:51;;;;;;;11.05;2.38;;;;;;;15.80;53.22;99019.75;5020013;28;20416;-60
2024/01/22 10:38:19;;;;;;;11.73;2.78;;;;;;;15.86;51.10;99027.34;4989416;28;20072;-54
2024/01/22 10:40:48;;;;;;;9.65;3.35;;;;;;;15.47;51.46;99025.44;4997694;28;20064;-57
2024/01/22 10:45:58;;;;;;;10.32;1.73;;;;;;;14.35;52.77;99036.41;5048990;28;20405;-57
2024/01/22 10:48:28;;;;;;;10.90;1.90;;;;;;;13.83;53.07;99034.66;5007551;28;20046;-52
2024/01/22 10:51:09;;;;;;;8.73;2.03;;;;;;;13.70;53.38;99038.53;4993771;28;20069;-57
2024/01/22 10:53:38;;;;;;;12.18;3.75;;;;;;;13.47;53.84;99032.28;4997079;28;20061;-59
2024/01/22 10:56:28;;;;;;;16.33;3.78;;;;;;;13.37;54.75;99035.16;5001643;28;20765;-52
2024/01/22 10:58:56;;;;;;;14.77;2.60;;;;;;;13.21;53.96;99044.34;5022628;28;20125;-55
2024/01/22 11:01:24;;;;;;;4.85;1.90;;;;;;;12.92;54.15;99051.22;4999294;28;20459;-57
2024/01/22 11:03:55;;;;;;;16.33;2.65;;;;;;;12.90;54.93;99053.03;4992209;28;20142;-55
2024/01/22 11:06:27;;;;;;;16.70;3.97;;;;;;;12.75;55.18;99049.97;4994941;28;20577;-57
2024/01/22 11:08:56;;;;;;;18.90;3.58;;;;;;;12.41;55.65;99056.06;4979707;28;20050;-59
2024/01/22 11:11:27;;;;;;;14.18;3.15;;;;;;;12.32;55.34;99063.19;4977251;28;20047;-52
2024/01/22 11:13:58;;;;;;;11.48;4.47;;;;;;;12.33;55.12;99059.69;4970080;28;20045;-57
2024/01/22 11:16:25;;;;;;;12.70;3.08;;;;;;;12.35;55.79;99057.06;4976740;28;20047;-57
2024/01/22 11:21:37;;;;;;;9.10;3.00;;;;;;;12.30;55.57;99064.97;5079706;27;20398;-59
2024/01/22 11:27:00;;;;;;;9.82;2.65;;;;;;;12.25;57.00;99060.78;5024735;28;20417;-60
2024/01/22 11:29:30;;;;;;;2.30;1.92;;;;;;;12.08;56.25;99070.72;5015455;28;20058;-55
2024/01/22 11:31:57;;;;;;;13.13;4.10;;;;;;;12.22;57.07;99072.09;5027950;28;20115;-59
2024/01/22 11:37:34;;;;;;;8.45;1.40;;;;;;;12.17;56.44;99063.59;5018772;28;20406;-57
2024/01/22 11:40:06;;;;;;;6.78;1.80;;;;;;;11.94;55.39;99062.38;4996698;28;20589;-56
2024/01/22 11:42:35;;;;;;;11.90;2.45;;;;;;;11.86;56.34;99064.31;4999786;28;20069;-57
2024/01/22 11:45:10;;;;;;;8.52;1.55;;;;;;;11.70;56.67;99064.69;5002090;28;20054;-61
2024/01/22 11:47:38;;;;;;;7.95;2.08;;;;;;;11.62;56.37;99071.78;4994120;28;20169;-56
2024/01/22 11:50:07;;;;;;;5.57;2.30;;;;;;;11.43;56.84;99064.41;4997501;28;20058;-57
2024/01/22 11:52:37;;;;;;;8.35;1.70;;;;;;;11.22;56.62;99087.34;4996630;28;20410;-55
2024/01/22 11:55:07;;;;;;;9.25;2.15;;;;;;;10.94;56.45;99090.47;5000384;28;20053;-56
2024/01/22 11:57:38;;;;;;;8.15;2.45;;;;;;;10.84;56.48;99089.78;4999718;28;20533;-55